sensor_id;sensor_type;location;lat;lon;timestamp;P1;durP1;ratioP1;P2;durP2;ratioP2
56593;SDS011;42474;51.660;5.824;2023-09-19T00:02:10;14.42;;;2.98;;
56593;SDS011;42474;51.660;5.824;2023-09-19T00:06:10;18.53;;;3.02;;
56593;SDS011;42474;51.660;5.824;2023-09-19T00:10:10;15.87;;;3.41;;
56593;SDS011;42474;51.660;5.824;2023-09-19T00:14:10;13.23;;;3.42;;
56593;SDS011;42474;51.660;5.824;2023-09-19T00:18:10;11.39;;;2.93;;
56593;SDS011;42474;51.660;5.824;2023-09-19T00:22:10;12.9;;;3.6;;
56593;SDS011;42474;51.660;5.824;2023-09-19T00:26:10;13.46;;;3.35;;
56593;SDS011;42474;51.660;5.824;2023-09-19T00:30:12;14.07;;;3.85;;
56593;SDS011;42474;51.660;5.824;2023-09-19T00:34:10;10.24;;;2.92;;
56593;SDS011;42474;51.660;5.824;2023-09-19T00:38:10;11.8;;;3.24;;
56593;SDS011;42474;51.660;5.824;2023-09-19T00:42:18;13;;;2.96;;
56593;SDS011;42474;51.660;5.824;2023-09-19T00:46:10;13.9;;;3.28;;
56593;SDS011;42474;51.660;5.824;2023-09-19T00:50:11;14.96;;;3.45;;
56593;SDS011;42474;51.660;5.824;2023-09-19T00:54:11;11.25;;;3.16;;
56593;SDS011;42474;51.660;5.824;2023-09-19T00:58:11;14.27;;;3.86;;
56593;SDS011;42474;51.660;5.824;2023-09-19T01:02:10;14.41;;;3.33;;
56593;SDS011;42474;51.660;5.824;2023-09-19T01:06:10;12.98;;;2.77;;
56593;SDS011;42474;51.660;5.824;2023-09-19T01:10:12;10.23;;;2.98;;
56593;SDS011;42474;51.660;5.824;2023-09-19T01:14:20;12.43;;;3.33;;
56593;SDS011;42474;51.660;5.824;2023-09-19T01:18:19;12.33;;;2.94;;
56593;SDS011;42474;51.660;5.824;2023-09-19T01:22:17;15.62;;;3.49;;
56593;SDS011;42474;51.660;5.824;2023-09-19T01:26:18;10.21;;;3.23;;
56593;SDS011;42474;51.660;5.824;2023-09-19T01:30:14;15.85;;;3.17;;
56593;SDS011;42474;51.660;5.824;2023-09-19T01:34:10;10.21;;;3.21;;
56593;SDS011;42474;51.660;5.824;2023-09-19T01:38:10;13.25;;;3.75;;
56593;SDS011;42474;51.660;5.824;2023-09-19T01:42:15;13.25;;;3.5;;
56593;SDS011;42474;51.660;5.824;2023-09-19T01:46:16;9.94;;;2.84;;
56593;SDS011;42474;51.660;5.824;2023-09-19T01:50:17;16.54;;;3.52;;
56593;SDS011;42474;51.660;5.824;2023-09-19T01:54:12;13.97;;;2.98;;
56593;SDS011;42474;51.660;5.824;2023-09-19T01:58:17;13.82;;;3.39;;
56593;SDS011;42474;51.660;5.824;2023-09-19T02:02:12;14.14;;;3.25;;
56593;SDS011;42474;51.660;5.824;2023-09-19T02:06:13;12.19;;;3.23;;
56593;SDS011;42474;51.660;5.824;2023-09-19T02:10:10;15.44;;;3.12;;
56593;SDS011;42474;51.660;5.824;2023-09-19T02:14:10;13.93;;;3.16;;
56593;SDS011;42474;51.660;5.824;2023-09-19T02:18:10;9.77;;;3.23;;
56593;SDS011;42474;51.660;5.824;2023-09-19T02:22:10;15.12;;;3.38;;
56593;SDS011;42474;51.660;5.824;2023-09-19T02:26:10;12.2;;;3.14;;
56593;SDS011;42474;51.660;5.824;2023-09-19T02:30:12;7.98;;;2.42;;
56593;SDS011;42474;51.660;5.824;2023-09-19T02:34:10;14.2;;;3.19;;
56593;SDS011;42474;51.660;5.824;2023-09-19T02:38:10;13.76;;;3.02;;
56593;SDS011;42474;51.660;5.824;2023-09-19T02:42:10;9.61;;;3.05;;
56593;SDS011;42474;51.660;5.824;2023-09-19T02:46:11;12.58;;;3.38;;
56593;SDS011;42474;51.660;5.824;2023-09-19T02:50:10;9.89;;;2.81;;
56593;SDS011;42474;51.660;5.824;2023-09-19T02:54:10;10.92;;;3.27;;
56593;SDS011;42474;51.660;5.824;2023-09-19T02:58:10;11.43;;;3.32;;
56593;SDS011;42474;51.660;5.824;2023-09-19T03:02:10;13.51;;;2.98;;
56593;SDS011;42474;51.660;5.824;2023-09-19T03:06:10;11.9;;;2.94;;
56593;SDS011;42474;51.660;5.824;2023-09-19T03:10:10;11.17;;;2.86;;
56593;SDS011;42474;51.660;5.824;2023-09-19T03:14:10;8.87;;;2.77;;
56593;SDS011;42474;51.660;5.824;2023-09-19T03:18:10;9.83;;;3.05;;
56593;SDS011;42474;51.660;5.824;2023-09-19T03:22:10;14.55;;;3.33;;
56593;SDS011;42474;51.660;5.824;2023-09-19T03:26:11;9.75;;;3.28;;
56593;SDS011;42474;51.660;5.824;2023-09-19T03:30:11;10.26;;;2.82;;
56593;SDS011;42474;51.660;5.824;2023-09-19T03:34:10;11.12;;;2.72;;
56593;SDS011;42474;51.660;5.824;2023-09-19T03:38:10;9.26;;;2.54;;
56593;SDS011;42474;51.660;5.824;2023-09-19T03:42:10;14.45;;;2.8;;
56593;SDS011;42474;51.660;5.824;2023-09-19T03:46:10;8.53;;;2.23;;
56593;SDS011;42474;51.660;5.824;2023-09-19T03:50:10;12.68;;;2.78;;
56593;SDS011;42474;51.660;5.824;2023-09-19T03:54:10;10.95;;;2.63;;
56593;SDS011;42474;51.660;5.824;2023-09-19T03:58:10;11.91;;;2.92;;
56593;SDS011;42474;51.660;5.824;2023-09-19T04:02:10;9.01;;;2.84;;
56593;SDS011;42474;51.660;5.824;2023-09-19T04:06:10;9.08;;;2.54;;
56593;SDS011;42474;51.660;5.824;2023-09-19T04:10:11;10.4;;;2.83;;
56593;SDS011;42474;51.660;5.824;2023-09-19T04:14:10;11.24;;;2.64;;
56593;SDS011;42474;51.660;5.824;2023-09-19T04:18:10;12.91;;;2.81;;
56593;SDS011;42474;51.660;5.824;2023-09-19T04:22:10;9.11;;;2.86;;
56593;SDS011;42474;51.660;5.824;2023-09-19T04:26:10;9.11;;;3.15;;
56593;SDS011;42474;51.660;5.824;2023-09-19T04:30:11;10.11;;;2.63;;
56593;SDS011;42474;51.660;5.824;2023-09-19T04:34:10;8.44;;;2.47;;
56593;SDS011;42474;51.660;5.824;2023-09-19T04:38:10;9.91;;;2.87;;
56593;SDS011;42474;51.660;5.824;2023-09-19T04:42:10;9.21;;;3.17;;
56593;SDS011;42474;51.660;5.824;2023-09-19T04:46:10;9.97;;;2.82;;
56593;SDS011;42474;51.660;5.824;2023-09-19T04:50:11;14.6;;;3.01;;
56593;SDS011;42474;51.660;5.824;2023-09-19T04:54:10;10.36;;;2.75;;
56593;SDS011;42474;51.660;5.824;2023-09-19T04:58:10;10.85;;;3.03;;
56593;SDS011;42474;51.660;5.824;2023-09-19T05:02:10;11.99;;;3.1;;
56593;SDS011;42474;51.660;5.824;2023-09-19T05:06:10;9.01;;;2.88;;
56593;SDS011;42474;51.660;5.824;2023-09-19T05:10:10;10.01;;;2.85;;
56593;SDS011;42474;51.660;5.824;2023-09-19T05:14:10;11.45;;;3.17;;
56593;SDS011;42474;51.660;5.824;2023-09-19T05:18:10;7.43;;;2.51;;
56593;SDS011;42474;51.660;5.824;2023-09-19T05:22:10;12.06;;;3.86;;
56593;SDS011;42474;51.660;5.824;2023-09-19T05:30:11;9.81;;;2.92;;
56593;SDS011;42474;51.660;5.824;2023-09-19T05:34:10;10.31;;;2.84;;
56593;SDS011;42474;51.660;5.824;2023-09-19T05:38:10;10.52;;;2.81;;
56593;SDS011;42474;51.660;5.824;2023-09-19T05:42:10;13.44;;;3.34;;
56593;SDS011;42474;51.660;5.824;2023-09-19T05:46:10;10.6;;;2.39;;
56593;SDS011;42474;51.660;5.824;2023-09-19T05:50:11;13.17;;;3.32;;
56593;SDS011;42474;51.660;5.824;2023-09-19T05:54:10;11.1;;;2.66;;
56593;SDS011;42474;51.660;5.824;2023-09-19T05:58:11;11.85;;;2.78;;
56593;SDS011;42474;51.660;5.824;2023-09-19T06:02:10;8.66;;;2.61;;
56593;SDS011;42474;51.660;5.824;2023-09-19T06:06:10;10.62;;;3.13;;
56593;SDS011;42474;51.660;5.824;2023-09-19T06:10:10;11.81;;;3.43;;
56593;SDS011;42474;51.660;5.824;2023-09-19T06:14:10;11.52;;;2.67;;
56593;SDS011;42474;51.660;5.824;2023-09-19T06:18:11;12.87;;;3.11;;
56593;SDS011;42474;51.660;5.824;2023-09-19T06:22:10;12.52;;;2.69;;
56593;SDS011;42474;51.660;5.824;2023-09-19T06:26:10;9.68;;;3.01;;
56593;SDS011;42474;51.660;5.824;2023-09-19T06:30:11;11.07;;;2.78;;
56593;SDS011;42474;51.660;5.824;2023-09-19T06:34:10;12.08;;;2.95;;
56593;SDS011;42474;51.660;5.824;2023-09-19T06:38:10;7.6;;;3.05;;
56593;SDS011;42474;51.660;5.824;2023-09-19T06:42:10;10.08;;;2.92;;
56593;SDS011;42474;51.660;5.824;2023-09-19T06:46:10;11.85;;;2.88;;
56593;SDS011;42474;51.660;5.824;2023-09-19T06:50:10;13.08;;;2.91;;
56593;SDS011;42474;51.660;5.824;2023-09-19T06:54:10;11.74;;;3.07;;
56593;SDS011;42474;51.660;5.824;2023-09-19T06:58:10;15.61;;;3.46;;
56593;SDS011;42474;51.660;5.824;2023-09-19T07:02:10;8.66;;;3.01;;
56593;SDS011;42474;51.660;5.824;2023-09-19T07:06:10;13.26;;;2.96;;
56593;SDS011;42474;51.660;5.824;2023-09-19T07:10:10;12.66;;;3.34;;
56593;SDS011;42474;51.660;5.824;2023-09-19T07:14:10;15.34;;;3.43;;
56593;SDS011;42474;51.660;5.824;2023-09-19T07:18:10;9.54;;;2.76;;
56593;SDS011;42474;51.660;5.824;2023-09-19T07:22:11;10.38;;;3.03;;
56593;SDS011;42474;51.660;5.824;2023-09-19T07:26:10;13.54;;;3.27;;
56593;SDS011;42474;51.660;5.824;2023-09-19T07:30:11;11.8;;;3.34;;
56593;SDS011;42474;51.660;5.824;2023-09-19T07:34:10;11.03;;;3.56;;
56593;SDS011;42474;51.660;5.824;2023-09-19T07:38:10;14.01;;;3.38;;
56593;SDS011;42474;51.660;5.824;2023-09-19T07:42:10;13.98;;;2.84;;
56593;SDS011;42474;51.660;5.824;2023-09-19T07:46:10;10.58;;;2.8;;
56593;SDS011;42474;51.660;5.824;2023-09-19T07:50:11;12.55;;;3.38;;
56593;SDS011;42474;51.660;5.824;2023-09-19T07:54:10;10.88;;;3.03;;
56593;SDS011;42474;51.660;5.824;2023-09-19T07:58:10;16.75;;;3.11;;
56593;SDS011;42474;51.660;5.824;2023-09-19T08:02:11;11.77;;;2.89;;
56593;SDS011;42474;51.660;5.824;2023-09-19T08:06:11;15.47;;;3.44;;
56593;SDS011;42474;51.660;5.824;2023-09-19T08:10:10;12.81;;;3.02;;
56593;SDS011;42474;51.660;5.824;2023-09-19T08:14:10;11.81;;;2.93;;
56593;SDS011;42474;51.660;5.824;2023-09-19T08:18:10;11.9;;;2.97;;
56593;SDS011;42474;51.660;5.824;2023-09-19T08:22:10;13.15;;;3;;
56593;SDS011;42474;51.660;5.824;2023-09-19T08:26:11;13;;;3.06;;
56593;SDS011;42474;51.660;5.824;2023-09-19T08:30:11;14.82;;;3.52;;
56593;SDS011;42474;51.660;5.824;2023-09-19T08:34:10;12.51;;;2.65;;
56593;SDS011;42474;51.660;5.824;2023-09-19T08:38:10;13.72;;;2.89;;
56593;SDS011;42474;51.660;5.824;2023-09-19T08:42:10;11.96;;;2.65;;
56593;SDS011;42474;51.660;5.824;2023-09-19T08:46:12;17.03;;;3.67;;
56593;SDS011;42474;51.660;5.824;2023-09-19T08:50:15;18.49;;;3.44;;
56593;SDS011;42474;51.660;5.824;2023-09-19T08:54:18;9.01;;;2.9;;
56593;SDS011;42474;51.660;5.824;2023-09-19T08:58:11;9.96;;;2.96;;
56593;SDS011;42474;51.660;5.824;2023-09-19T09:02:12;11.93;;;2.73;;
56593;SDS011;42474;51.660;5.824;2023-09-19T09:06:10;18.77;;;3.53;;
56593;SDS011;42474;51.660;5.824;2023-09-19T09:10:11;13.45;;;3.03;;
56593;SDS011;42474;51.660;5.824;2023-09-19T09:14:11;11.11;;;3.08;;
56593;SDS011;42474;51.660;5.824;2023-09-19T09:18:11;12.16;;;3.18;;
56593;SDS011;42474;51.660;5.824;2023-09-19T09:22:11;12.23;;;3.4;;
56593;SDS011;42474;51.660;5.824;2023-09-19T09:26:11;11.52;;;2.74;;
56593;SDS011;42474;51.660;5.824;2023-09-19T09:30:33;14.34;;;3.09;;
56593;SDS011;42474;51.660;5.824;2023-09-19T09:34:11;7.51;;;2.37;;
56593;SDS011;42474;51.660;5.824;2023-09-19T09:38:10;17.56;;;3.55;;
56593;SDS011;42474;51.660;5.824;2023-09-19T09:42:29;12.42;;;3.26;;
56593;SDS011;42474;51.660;5.824;2023-09-19T09:46:13;9.93;;;2.78;;
56593;SDS011;42474;51.660;5.824;2023-09-19T09:50:11;12.91;;;3.24;;
56593;SDS011;42474;51.660;5.824;2023-09-19T09:54:11;14.41;;;3.19;;
56593;SDS011;42474;51.660;5.824;2023-09-19T09:58:18;9.88;;;2.61;;
56593;SDS011;42474;51.660;5.824;2023-09-19T10:02:11;11.79;;;2.45;;
56593;SDS011;42474;51.660;5.824;2023-09-19T10:06:12;7.9;;;2.57;;
56593;SDS011;42474;51.660;5.824;2023-09-19T10:10:11;12.92;;;3.07;;
56593;SDS011;42474;51.660;5.824;2023-09-19T10:14:12;9.27;;;2.5;;
56593;SDS011;42474;51.660;5.824;2023-09-19T10:18:11;8.04;;;2.36;;
56593;SDS011;42474;51.660;5.824;2023-09-19T10:22:11;9.72;;;2.79;;
56593;SDS011;42474;51.660;5.824;2023-09-19T10:26:11;10.43;;;2.54;;
56593;SDS011;42474;51.660;5.824;2023-09-19T10:30:11;9.95;;;2.27;;
56593;SDS011;42474;51.660;5.824;2023-09-19T10:34:11;10.54;;;2.89;;
56593;SDS011;42474;51.660;5.824;2023-09-19T10:38:13;11.33;;;2.92;;
56593;SDS011;42474;51.660;5.824;2023-09-19T10:42:14;8.43;;;2.31;;
56593;SDS011;42474;51.660;5.824;2023-09-19T10:46:11;8.14;;;2.23;;
56593;SDS011;42474;51.660;5.824;2023-09-19T10:50:19;8.19;;;2.56;;
56593;SDS011;42474;51.660;5.824;2023-09-19T10:54:12;11.73;;;2.43;;
56593;SDS011;42474;51.660;5.824;2023-09-19T10:58:11;10.89;;;2.62;;
56593;SDS011;42474;51.660;5.824;2023-09-19T11:02:16;8.52;;;2.67;;
56593;SDS011;42474;51.660;5.824;2023-09-19T11:06:12;8.47;;;2.17;;
56593;SDS011;42474;51.660;5.824;2023-09-19T11:10:44;8.04;;;2.17;;
56593;SDS011;42474;51.660;5.824;2023-09-19T11:14:15;9.15;;;2.72;;
56593;SDS011;42474;51.660;5.824;2023-09-19T11:18:51;8.8;;;2.32;;
56593;SDS011;42474;51.660;5.824;2023-09-19T11:22:11;6.46;;;2.3;;
56593;SDS011;42474;51.660;5.824;2023-09-19T11:26:40;10.46;;;2.23;;
56593;SDS011;42474;51.660;5.824;2023-09-19T11:30:26;7.73;;;1.98;;
56593;SDS011;42474;51.660;5.824;2023-09-19T11:34:44;7.86;;;2.32;;
56593;SDS011;42474;51.660;5.824;2023-09-19T11:38:10;11.37;;;2.84;;
56593;SDS011;42474;51.660;5.824;2023-09-19T11:42:42;7.88;;;2.38;;
56593;SDS011;42474;51.660;5.824;2023-09-19T11:46:33;8.28;;;1.99;;
56593;SDS011;42474;51.660;5.824;2023-09-19T11:50:11;3.93;;;1.76;;
56593;SDS011;42474;51.660;5.824;2023-09-19T11:54:11;6.08;;;2.06;;
56593;SDS011;42474;51.660;5.824;2023-09-19T11:58:12;4.66;;;1.53;;
56593;SDS011;42474;51.660;5.824;2023-09-19T12:02:20;7.14;;;1.78;;
56593;SDS011;42474;51.660;5.824;2023-09-19T12:06:11;5.31;;;1.72;;
56593;SDS011;42474;51.660;5.824;2023-09-19T12:10:11;7.62;;;1.79;;
56593;SDS011;42474;51.660;5.824;2023-09-19T12:14:11;9.02;;;2.29;;
56593;SDS011;42474;51.660;5.824;2023-09-19T12:18:25;6.4;;;1.74;;
56593;SDS011;42474;51.660;5.824;2023-09-19T12:22:11;7.29;;;1.83;;
56593;SDS011;42474;51.660;5.824;2023-09-19T12:26:11;10.35;;;1.76;;
56593;SDS011;42474;51.660;5.824;2023-09-19T12:30:11;5.9;;;1.3;;
56593;SDS011;42474;51.660;5.824;2023-09-19T12:34:11;7.54;;;2.22;;
56593;SDS011;42474;51.660;5.824;2023-09-19T12:38:11;6.44;;;1.37;;
56593;SDS011;42474;51.660;5.824;2023-09-19T12:42:11;4.03;;;1.26;;
56593;SDS011;42474;51.660;5.824;2023-09-19T12:46:11;3.76;;;1.34;;
56593;SDS011;42474;51.660;5.824;2023-09-19T12:50:12;8.38;;;1.6;;
56593;SDS011;42474;51.660;5.824;2023-09-19T12:54:11;4.72;;;1.12;;
56593;SDS011;42474;51.660;5.824;2023-09-19T12:58:12;4.69;;;1.38;;
56593;SDS011;42474;51.660;5.824;2023-09-19T13:02:11;4.29;;;1.27;;
56593;SDS011;42474;51.660;5.824;2023-09-19T13:06:11;7.02;;;1.18;;
56593;SDS011;42474;51.660;5.824;2023-09-19T13:10:11;5.22;;;1.28;;
56593;SDS011;42474;51.660;5.824;2023-09-19T13:14:16;5.04;;;1.06;;
56593;SDS011;42474;51.660;5.824;2023-09-19T13:18:11;5.15;;;1.29;;
56593;SDS011;42474;51.660;5.824;2023-09-19T13:22:43;3.46;;;0.98;;
56593;SDS011;42474;51.660;5.824;2023-09-19T13:26:11;4.38;;;1.21;;
56593;SDS011;42474;51.660;5.824;2023-09-19T13:30:12;6.66;;;1.07;;
56593;SDS011;42474;51.660;5.824;2023-09-19T13:34:11;2.71;;;1.13;;
56593;SDS011;42474;51.660;5.824;2023-09-19T13:38:11;3.83;;;1.12;;
56593;SDS011;42474;51.660;5.824;2023-09-19T13:42:11;3.91;;;0.94;;
56593;SDS011;42474;51.660;5.824;2023-09-19T13:46:11;5.93;;;1.18;;
56593;SDS011;42474;51.660;5.824;2023-09-19T13:50:11;4.74;;;1.04;;
56593;SDS011;42474;51.660;5.824;2023-09-19T13:54:11;2.76;;;0.96;;
56593;SDS011;42474;51.660;5.824;2023-09-19T13:58:11;3.46;;;1.21;;
56593;SDS011;42474;51.660;5.824;2023-09-19T14:02:11;7.18;;;1.26;;
56593;SDS011;42474;51.660;5.824;2023-09-19T14:06:11;6.28;;;1.32;;
56593;SDS011;42474;51.660;5.824;2023-09-19T14:10:11;3.66;;;1.21;;
56593;SDS011;42474;51.660;5.824;2023-09-19T14:14:11;5.77;;;1.15;;
56593;SDS011;42474;51.660;5.824;2023-09-19T14:18:11;5.03;;;0.88;;
56593;SDS011;42474;51.660;5.824;2023-09-19T14:22:11;10.62;;;1.32;;
56593;SDS011;42474;51.660;5.824;2023-09-19T14:26:11;2.2;;;0.97;;
56593;SDS011;42474;51.660;5.824;2023-09-19T14:30:11;5.06;;;1.14;;
56593;SDS011;42474;51.660;5.824;2023-09-19T14:34:11;6.24;;;1.07;;
56593;SDS011;42474;51.660;5.824;2023-09-19T14:38:11;2.48;;;1.15;;
56593;SDS011;42474;51.660;5.824;2023-09-19T14:42:11;5.44;;;1.18;;
56593;SDS011;42474;51.660;5.824;2023-09-19T14:46:11;4.91;;;1.23;;
56593;SDS011;42474;51.660;5.824;2023-09-19T14:50:11;3.3;;;1.09;;
56593;SDS011;42474;51.660;5.824;2023-09-19T14:54:11;4.61;;;1.21;;
56593;SDS011;42474;51.660;5.824;2023-09-19T14:58:11;5.14;;;1.13;;
56593;SDS011;42474;51.660;5.824;2023-09-19T15:02:11;5.05;;;1.32;;
56593;SDS011;42474;51.660;5.824;2023-09-19T15:06:12;2.9;;;1.01;;
56593;SDS011;42474;51.660;5.824;2023-09-19T15:10:11;4.18;;;1.6;;
56593;SDS011;42474;51.660;5.824;2023-09-19T15:14:11;5.05;;;1.38;;
56593;SDS011;42474;51.660;5.824;2023-09-19T15:18:11;9.22;;;1.66;;
56593;SDS011;42474;51.660;5.824;2023-09-19T15:22:11;3.61;;;1.21;;
56593;SDS011;42474;51.660;5.824;2023-09-19T15:26:12;3.89;;;1.23;;
56593;SDS011;42474;51.660;5.824;2023-09-19T15:30:11;5.15;;;1.44;;
56593;SDS011;42474;51.660;5.824;2023-09-19T15:34:11;4.69;;;1.03;;
56593;SDS011;42474;51.660;5.824;2023-09-19T15:38:11;5.38;;;1.22;;
56593;SDS011;42474;51.660;5.824;2023-09-19T15:42:11;3.52;;;1.1;;
56593;SDS011;42474;51.660;5.824;2023-09-19T15:46:11;3.33;;;1.24;;
56593;SDS011;42474;51.660;5.824;2023-09-19T15:50:11;3.75;;;1.27;;
56593;SDS011;42474;51.660;5.824;2023-09-19T15:54:12;3.98;;;1.13;;
56593;SDS011;42474;51.660;5.824;2023-09-19T15:58:11;2.53;;;1.02;;
56593;SDS011;42474;51.660;5.824;2023-09-19T16:02:11;3.5;;;1.33;;
56593;SDS011;42474;51.660;5.824;2023-09-19T16:06:12;4.16;;;1.29;;
56593;SDS011;42474;51.660;5.824;2023-09-19T16:10:11;6.41;;;1.88;;
56593;SDS011;42474;51.660;5.824;2023-09-19T16:14:11;4.56;;;1.27;;
56593;SDS011;42474;51.660;5.824;2023-09-19T16:18:11;5.75;;;1.38;;
56593;SDS011;42474;51.660;5.824;2023-09-19T16:22:11;5.08;;;1.5;;
56593;SDS011;42474;51.660;5.824;2023-09-19T16:26:11;6.44;;;1.93;;
56593;SDS011;42474;51.660;5.824;2023-09-19T16:30:11;3.57;;;1.26;;
56593;SDS011;42474;51.660;5.824;2023-09-19T16:34:11;5.6;;;1.35;;
56593;SDS011;42474;51.660;5.824;2023-09-19T16:38:13;3.93;;;1.39;;
56593;SDS011;42474;51.660;5.824;2023-09-19T16:42:11;4.63;;;1.45;;
56593;SDS011;42474;51.660;5.824;2023-09-19T16:46:12;4.51;;;1.48;;
56593;SDS011;42474;51.660;5.824;2023-09-19T16:50:11;4.57;;;1.46;;
56593;SDS011;42474;51.660;5.824;2023-09-19T16:54:11;3.51;;;1.24;;
56593;SDS011;42474;51.660;5.824;2023-09-19T16:58:11;8.17;;;1.64;;
56593;SDS011;42474;51.660;5.824;2023-09-19T17:02:11;4.94;;;1.55;;
56593;SDS011;42474;51.660;5.824;2023-09-19T17:06:12;2.93;;;1.4;;
56593;SDS011;42474;51.660;5.824;2023-09-19T17:10:11;4.37;;;1.44;;
56593;SDS011;42474;51.660;5.824;2023-09-19T17:14:11;4.54;;;1.35;;
56593;SDS011;42474;51.660;5.824;2023-09-19T17:18:11;6.41;;;1.66;;
56593;SDS011;42474;51.660;5.824;2023-09-19T17:22:11;5.36;;;1.55;;
56593;SDS011;42474;51.660;5.824;2023-09-19T17:26:13;4.53;;;1.43;;
56593;SDS011;42474;51.660;5.824;2023-09-19T17:30:12;5;;;1.72;;
56593;SDS011;42474;51.660;5.824;2023-09-19T17:34:11;7.51;;;1.84;;
56593;SDS011;42474;51.660;5.824;2023-09-19T17:38:11;5.01;;;1.67;;
56593;SDS011;42474;51.660;5.824;2023-09-19T17:42:11;5.6;;;1.77;;
56593;SDS011;42474;51.660;5.824;2023-09-19T17:46:12;6.83;;;1.97;;
56593;SDS011;42474;51.660;5.824;2023-09-19T17:50:11;4.84;;;1.98;;
56593;SDS011;42474;51.660;5.824;2023-09-19T17:54:11;4.53;;;1.88;;
56593;SDS011;42474;51.660;5.824;2023-09-19T17:58:11;4.79;;;1.61;;
56593;SDS011;42474;51.660;5.824;2023-09-19T18:02:11;6.41;;;2.12;;
56593;SDS011;42474;51.660;5.824;2023-09-19T18:06:13;4.87;;;2.01;;
56593;SDS011;42474;51.660;5.824;2023-09-19T18:10:11;6.06;;;2.36;;
56593;SDS011;42474;51.660;5.824;2023-09-19T18:14:11;7.03;;;2.12;;
56593;SDS011;42474;51.660;5.824;2023-09-19T18:18:11;7.75;;;2.01;;
56593;SDS011;42474;51.660;5.824;2023-09-19T18:22:11;5.53;;;1.66;;
56593;SDS011;42474;51.660;5.824;2023-09-19T18:26:11;5.38;;;1.92;;
56593;SDS011;42474;51.660;5.824;2023-09-19T18:30:11;5.98;;;1.94;;
56593;SDS011;42474;51.660;5.824;2023-09-19T18:34:11;5.25;;;1.89;;
56593;SDS011;42474;51.660;5.824;2023-09-19T18:38:11;7.65;;;1.99;;
56593;SDS011;42474;51.660;5.824;2023-09-19T18:42:11;6;;;1.95;;
56593;SDS011;42474;51.660;5.824;2023-09-19T18:46:11;4.68;;;1.75;;
56593;SDS011;42474;51.660;5.824;2023-09-19T18:50:11;5.04;;;1.55;;
56593;SDS011;42474;51.660;5.824;2023-09-19T18:54:11;6.19;;;1.71;;
56593;SDS011;42474;51.660;5.824;2023-09-19T18:58:11;4.38;;;1.66;;
56593;SDS011;42474;51.660;5.824;2023-09-19T19:02:11;4.76;;;1.63;;
56593;SDS011;42474;51.660;5.824;2023-09-19T19:06:12;4.61;;;1.84;;
56593;SDS011;42474;51.660;5.824;2023-09-19T19:10:11;6.12;;;1.79;;
56593;SDS011;42474;51.660;5.824;2023-09-19T19:14:11;8.36;;;2.1;;
56593;SDS011;42474;51.660;5.824;2023-09-19T19:18:11;5.93;;;2.04;;
56593;SDS011;42474;51.660;5.824;2023-09-19T19:22:11;6.54;;;2.01;;
56593;SDS011;42474;51.660;5.824;2023-09-19T19:26:11;5.5;;;2.07;;
56593;SDS011;42474;51.660;5.824;2023-09-19T19:30:12;6.28;;;1.77;;
56593;SDS011;42474;51.660;5.824;2023-09-19T19:34:11;4.97;;;1.69;;
56593;SDS011;42474;51.660;5.824;2023-09-19T19:38:11;5.53;;;2.31;;
56593;SDS011;42474;51.660;5.824;2023-09-19T19:42:12;5.32;;;1.76;;
56593;SDS011;42474;51.660;5.824;2023-09-19T19:46:12;6.63;;;1.81;;
56593;SDS011;42474;51.660;5.824;2023-09-19T19:50:11;6.39;;;2.12;;
56593;SDS011;42474;51.660;5.824;2023-09-19T19:54:11;6.1;;;1.84;;
56593;SDS011;42474;51.660;5.824;2023-09-19T19:58:11;6.5;;;1.97;;
56593;SDS011;42474;51.660;5.824;2023-09-19T20:02:11;6.34;;;2.06;;
56593;SDS011;42474;51.660;5.824;2023-09-19T20:06:11;9.19;;;2.04;;
56593;SDS011;42474;51.660;5.824;2023-09-19T20:10:12;4;;;1.74;;
56593;SDS011;42474;51.660;5.824;2023-09-19T20:14:11;6.04;;;1.89;;
56593;SDS011;42474;51.660;5.824;2023-09-19T20:18:11;7.24;;;2.49;;
56593;SDS011;42474;51.660;5.824;2023-09-19T20:22:13;5.62;;;2.24;;
56593;SDS011;42474;51.660;5.824;2023-09-19T20:26:13;7.26;;;2.09;;
56593;SDS011;42474;51.660;5.824;2023-09-19T20:30:15;6.12;;;2.03;;
56593;SDS011;42474;51.660;5.824;2023-09-19T20:34:11;7.24;;;2.48;;
56593;SDS011;42474;51.660;5.824;2023-09-19T20:38:11;6.92;;;1.83;;
56593;SDS011;42474;51.660;5.824;2023-09-19T20:42:11;5.43;;;2.12;;
56593;SDS011;42474;51.660;5.824;2023-09-19T20:46:11;9.86;;;2.13;;
56593;SDS011;42474;51.660;5.824;2023-09-19T20:50:11;6.73;;;2.11;;
56593;SDS011;42474;51.660;5.824;2023-09-19T20:54:11;6.25;;;1.95;;
56593;SDS011;42474;51.660;5.824;2023-09-19T20:58:11;5.37;;;1.97;;
56593;SDS011;42474;51.660;5.824;2023-09-19T21:02:11;5.85;;;1.86;;
56593;SDS011;42474;51.660;5.824;2023-09-19T21:06:11;9.34;;;2.35;;
56593;SDS011;42474;51.660;5.824;2023-09-19T21:10:11;7.1;;;2.23;;
56593;SDS011;42474;51.660;5.824;2023-09-19T21:14:11;5.07;;;1.82;;
56593;SDS011;42474;51.660;5.824;2023-09-19T21:18:11;4.57;;;2.17;;
56593;SDS011;42474;51.660;5.824;2023-09-19T21:22:11;5.68;;;2.01;;
56593;SDS011;42474;51.660;5.824;2023-09-19T21:26:11;5.02;;;2.22;;
56593;SDS011;42474;51.660;5.824;2023-09-19T21:30:12;5.79;;;2.29;;
56593;SDS011;42474;51.660;5.824;2023-09-19T21:34:11;5.31;;;2.14;;
56593;SDS011;42474;51.660;5.824;2023-09-19T21:38:11;4.62;;;2.1;;
56593;SDS011;42474;51.660;5.824;2023-09-19T21:42:11;5.81;;;2.01;;
56593;SDS011;42474;51.660;5.824;2023-09-19T21:46:11;4.64;;;2.18;;
56593;SDS011;42474;51.660;5.824;2023-09-19T21:50:11;6.1;;;2.09;;
56593;SDS011;42474;51.660;5.824;2023-09-19T21:54:11;7.51;;;2.22;;
56593;SDS011;42474;51.660;5.824;2023-09-19T21:58:11;6.28;;;2.45;;
56593;SDS011;42474;51.660;5.824;2023-09-19T22:02:11;10.04;;;2.59;;
56593;SDS011;42474;51.660;5.824;2023-09-19T22:06:12;6.79;;;2.46;;
56593;SDS011;42474;51.660;5.824;2023-09-19T22:10:11;6.3;;;2.27;;
56593;SDS011;42474;51.660;5.824;2023-09-19T22:14:11;5.48;;;2.09;;
56593;SDS011;42474;51.660;5.824;2023-09-19T22:18:11;7.38;;;2.57;;
56593;SDS011;42474;51.660;5.824;2023-09-19T22:22:11;6.32;;;2.25;;
56593;SDS011;42474;51.660;5.824;2023-09-19T22:26:13;4.79;;;2.11;;
56593;SDS011;42474;51.660;5.824;2023-09-19T22:30:12;4.82;;;2.17;;
56593;SDS011;42474;51.660;5.824;2023-09-19T22:34:11;6.73;;;2.46;;
56593;SDS011;42474;51.660;5.824;2023-09-19T22:38:11;6.19;;;2.21;;
56593;SDS011;42474;51.660;5.824;2023-09-19T22:42:11;6.73;;;2.32;;
56593;SDS011;42474;51.660;5.824;2023-09-19T22:46:12;6.34;;;2.24;;
56593;SDS011;42474;51.660;5.824;2023-09-19T22:50:11;6.04;;;2.07;;
56593;SDS011;42474;51.660;5.824;2023-09-19T22:54:11;5.38;;;2.67;;
56593;SDS011;42474;51.660;5.824;2023-09-19T22:58:11;8.37;;;2.36;;
56593;SDS011;42474;51.660;5.824;2023-09-19T23:02:11;6.34;;;2.62;;
56593;SDS011;42474;51.660;5.824;2023-09-19T23:06:13;4.73;;;2.17;;
56593;SDS011;42474;51.660;5.824;2023-09-19T23:10:11;6.89;;;2.36;;
56593;SDS011;42474;51.660;5.824;2023-09-19T23:14:11;7.94;;;2.61;;
56593;SDS011;42474;51.660;5.824;2023-09-19T23:18:11;6.66;;;2.44;;
56593;SDS011;42474;51.660;5.824;2023-09-19T23:22:11;5.16;;;2.32;;
56593;SDS011;42474;51.660;5.824;2023-09-19T23:26:11;5.82;;;2.36;;
56593;SDS011;42474;51.660;5.824;2023-09-19T23:30:12;6.48;;;2.64;;
56593;SDS011;42474;51.660;5.824;2023-09-19T23:34:11;7.48;;;2.63;;
56593;SDS011;42474;51.660;5.824;2023-09-19T23:38:11;6.34;;;2.5;;
56593;SDS011;42474;51.660;5.824;2023-09-19T23:42:11;5.78;;;2.31;;
56593;SDS011;42474;51.660;5.824;2023-09-19T23:46:11;11.44;;;2.67;;
56593;SDS011;42474;51.660;5.824;2023-09-19T23:50:11;7.06;;;2.61;;
56593;SDS011;42474;51.660;5.824;2023-09-19T23:54:11;8.97;;;3.04;;
56593;SDS011;42474;51.660;5.824;2023-09-19T23:58:11;7.61;;;3;;
